Time,TemperatureF,DewpointF,PressureIn,WindDirection,WindDirectionDegrees,WindSpeedMPH,WindSpeedGustMPH,Humidity,HourlyPrecipIn,Conditions,Clouds,dailyrainin,SoftwareType,DateUTC
2013-02-02 00:03:00,67.6,57.6,30.06,East,82,3.0,5.0,70,0.00,,,0.00,meteohub,2013-02-02 10:03:00,
2013-02-02 00:08:00,68.2,58.1,30.06,NE,49,2.0,5.0,70,0.00,,,0.00,meteohub,2013-02-02 10:08:00,
2013-02-02 00:13:00,68.2,58.1,30.06,East,83,1.0,5.0,70,0.00,,,0.00,meteohub,2013-02-02 10:13:00,
2013-02-02 00:18:00,67.6,57.6,30.06,East,88,3.0,5.0,70,0.00,,,0.00,meteohub,2013-02-02 10:18:00,
2013-02-02 00:23:00,67.3,57.2,30.06,East,100,4.0,4.0,70,0.00,,,0.00,meteohub,2013-02-02 10:23:00,
2013-02-02 00:29:00,67.3,57.6,30.06,ENE,63,4.0,5.0,71,0.00,,,0.00,meteohub,2013-02-02 10:29:00,
2013-02-02 00:34:00,67.3,57.6,30.06,East,84,3.0,5.0,71,0.00,,,0.00,meteohub,2013-02-02 10:34:00,
2013-02-02 00:39:00,67.6,57.9,30.06,ENE,68,2.0,5.0,71,0.00,,,0.00,meteohub,2013-02-02 10:39:00,
2013-02-02 00:44:00,67.6,57.6,30.06,East,95,2.0,5.0,70,0.00,,,0.00,meteohub,2013-02-02 10:44:00,
2013-02-02 00:49:00,67.8,57.2,30.06,East,91,4.0,4.0,69,0.00,,,0.00,meteohub,2013-02-02 10:49:00,
2013-02-02 00:54:00,67.5,57.4,30.05,ESE,109,3.0,4.0,70,0.00,,,0.00,meteohub,2013-02-02 10:54:00,
2013-02-02 00:59:00,67.5,57.4,30.05,ESE,113,2.0,4.0,70,0.00,,,0.00,meteohub,2013-02-02 10:59:00,
2013-02-02 01:04:00,67.3,57.2,30.05,East,100,0.0,4.0,70,0.00,,,0.00,meteohub,2013-02-02 11:04:00,
2013-02-02 01:09:00,67.3,57.2,30.05,ESE,103,3.0,4.0,70,0.00,,,0.00,meteohub,2013-02-02 11:09:00,
2013-02-02 01:14:00,67.1,57.0,30.05,SE,129,3.0,4.0,70,0.00,,,0.00,meteohub,2013-02-02 11:14:00,
2013-02-02 01:19:00,67.3,56.8,30.05,East,94,1.0,5.0,69,0.00,,,0.00,meteohub,2013-02-02 11:19:00,
2013-02-02 01:24:00,67.3,56.8,30.05,ENE,73,2.0,6.0,69,0.00,,,0.00,meteohub,2013-02-02 11:24:00,
2013-02-02 01:29:00,67.3,56.8,30.05,East,85,3.0,6.0,69,0.00,,,0.00,meteohub,2013-02-02 11:29:00,
2013-02-02 01:34:00,66.9,56.5,30.05,East,94,2.0,5.0,69,0.00,,,0.00,meteohub,2013-02-02 11:34:00,
2013-02-02 01:39:00,66.7,56.7,30.04,East,96,4.0,4.0,70,0.00,,,0.00,meteohub,2013-02-02 11:39:00,
2013-02-02 01:44:00,66.7,56.7,30.04,East,85,3.0,4.0,70,0.00,,,0.00,meteohub,2013-02-02 11:44:00,
2013-02-02 01:49:00,66.7,56.7,30.04,East,98,4.0,5.0,70,0.00,,,0.00,meteohub,2013-02-02 11:49:00,
2013-02-02 01:55:00,66.7,56.7,30.04,East,98,3.0,5.0,70,0.00,,,0.00,meteohub,2013-02-02 11:55:00,
2013-02-02 02:00:00,66.7,56.7,30.04,East,89,4.0,5.0,70,0.00,,,0.00,meteohub,2013-02-02 12:00:00,
2013-02-02 02:05:00,66.6,56.5,30.04,ESE,106,3.0,5.0,70,0.00,,,0.00,meteohub,2013-02-02 12:05:00,
2013-02-02 02:10:00,66.6,56.8,30.04,East,91,4.0,4.0,71,0.00,,,0.00,meteohub,2013-02-02 12:10:00,
2013-02-02 02:15:00,66.7,56.7,30.04,East,84,4.0,5.0,70,0.00,,,0.00,meteohub,2013-02-02 12:15:00,
2013-02-02 02:20:00,66.7,56.7,30.04,East,90,3.0,5.0,70,0.00,,,0.00,meteohub,2013-02-02 12:20:00,
2013-02-02 02:25:00,66.7,56.7,30.04,East,84,3.0,4.0,70,0.00,,,0.00,meteohub,2013-02-02 12:25:00,
2013-02-02 02:30:00,66.7,56.7,30.03,East,95,3.0,4.0,70,0.00,,,0.00,meteohub,2013-02-02 12:30:00,
2013-02-02 02:35:00,66.7,56.7,30.04,East,94,2.0,4.0,70,0.00,,,0.00,meteohub,2013-02-02 12:35:00,
2013-02-02 02:40:00,66.7,56.7,30.04,SSE,156,1.0,5.0,70,0.00,,,0.00,meteohub,2013-02-02 12:40:00,
2013-02-02 02:45:00,66.6,56.5,30.03,East,94,2.0,5.0,70,0.00,,,0.00,meteohub,2013-02-02 12:45:00,
2013-02-02 02:50:00,66.4,56.7,30.04,East,100,3.0,5.0,71,0.00,,,0.00,meteohub,2013-02-02 12:50:00,
2013-02-02 02:55:00,66.4,56.7,30.03,East,84,2.0,4.0,71,0.00,,,0.00,meteohub,2013-02-02 12:55:00,
2013-02-02 03:00:00,66.4,56.7,30.03,ENE,78,3.0,4.0,71,0.00,,,0.00,meteohub,2013-02-02 13:00:00,
2013-02-02 03:05:00,66.4,56.7,30.03,East,79,2.0,4.0,71,0.00,,,0.00,meteohub,2013-02-02 13:05:00,
2013-02-02 03:10:00,66.0,56.7,30.03,East,84,3.0,4.0,72,0.00,,,0.00,meteohub,2013-02-02 13:10:00,
2013-02-02 03:15:00,66.0,56.7,30.03,ENE,72,4.0,5.0,72,0.00,,,0.00,meteohub,2013-02-02 13:15:00,
2013-02-02 03:21:00,66.0,56.7,30.03,East,79,2.0,5.0,72,0.00,,,0.00,meteohub,2013-02-02 13:21:00,
2013-02-02 03:26:00,66.2,56.8,30.03,East,81,3.0,5.0,72,0.00,,,0.00,meteohub,2013-02-02 13:26:00,
2013-02-02 03:31:00,66.4,57.0,30.03,East,82,2.0,5.0,72,0.00,,,0.00,meteohub,2013-02-02 13:31:00,
2013-02-02 03:36:00,66.4,57.4,30.03,East,100,2.0,4.0,73,0.00,,,0.00,meteohub,2013-02-02 13:36:00,
2013-02-02 03:41:00,66.4,57.0,30.03,East,84,2.0,6.0,72,0.00,,,0.00,meteohub,2013-02-02 13:41:00,
2013-02-02 03:46:00,66.4,57.4,30.03,East,94,2.0,6.0,73,0.00,,,0.00,meteohub,2013-02-02 13:46:00,
2013-02-02 03:51:00,66.6,57.6,30.03,ENE,77,3.0,6.0,73,0.00,,,0.00,meteohub,2013-02-02 13:51:00,
2013-02-02 03:56:00,66.0,56.7,30.03,ENE,78,3.0,4.0,72,0.00,,,0.00,meteohub,2013-02-02 13:56:00,
2013-02-02 04:01:00,65.7,57.2,30.03,East,90,4.0,4.0,74,0.00,,,0.00,meteohub,2013-02-02 14:01:00,
2013-02-02 04:06:00,65.7,57.2,30.03,ESE,117,2.0,4.0,74,0.00,,,0.00,meteohub,2013-02-02 14:06:00,
2013-02-02 04:11:00,65.5,57.0,30.04,ESE,106,3.0,4.0,74,0.00,,,0.00,meteohub,2013-02-02 14:11:00,
2013-02-02 04:16:00,65.5,57.4,30.04,ENE,71,2.0,4.0,75,0.00,,,0.00,meteohub,2013-02-02 14:16:00,
2013-02-02 04:21:00,65.5,57.4,30.04,NW,319,1.0,4.0,75,0.00,,,0.00,meteohub,2013-02-02 14:21:00,
2013-02-02 04:26:00,65.5,57.4,30.04,NW,319,0.0,4.0,75,0.00,,,0.00,meteohub,2013-02-02 14:26:00,
2013-02-02 04:31:00,65.7,57.6,30.04,ESE,112,1.0,3.0,75,0.00,,,0.00,meteohub,2013-02-02 14:31:00,
2013-02-02 04:36:00,65.1,57.0,30.04,East,96,2.0,3.0,75,0.00,,,0.00,meteohub,2013-02-02 14:36:00,
2013-02-02 04:42:00,65.1,57.7,30.04,East,94,1.0,2.0,77,0.00,,,0.00,meteohub,2013-02-02 14:42:00,
2013-02-02 04:47:00,65.1,57.4,30.05,ENE,78,3.0,3.0,76,0.00,,,0.00,meteohub,2013-02-02 14:47:00,
2013-02-02 04:52:00,64.9,57.2,30.05,East,84,2.0,3.0,76,0.00,,,0.00,meteohub,2013-02-02 14:52:00,
2013-02-02 04:57:00,64.2,56.5,30.05,East,92,4.0,4.0,76,0.00,,,0.00,meteohub,2013-02-02 14:57:00,
2013-02-02 05:02:00,63.7,55.9,30.05,East,86,3.0,4.0,76,0.00,,,0.00,meteohub,2013-02-02 15:02:00,
2013-02-02 05:07:00,63.1,55.8,30.05,East,91,4.0,4.0,77,0.00,,,0.00,meteohub,2013-02-02 15:07:00,
2013-02-02 05:12:00,63.3,56.3,30.05,East,82,2.0,4.0,78,0.00,,,0.00,meteohub,2013-02-02 15:12:00,
2013-02-02 05:17:00,63.9,56.8,30.05,ESE,112,2.0,4.0,78,0.00,,,0.00,meteohub,2013-02-02 15:17:00,
2013-02-02 05:22:00,64.0,57.7,30.05,East,100,2.0,4.0,80,0.00,,,0.00,meteohub,2013-02-02 15:22:00,
2013-02-02 05:27:00,64.4,57.4,30.06,ESE,102,3.0,4.0,78,0.00,,,0.00,meteohub,2013-02-02 15:27:00,
2013-02-02 05:32:00,64.8,57.7,30.06,East,82,3.0,4.0,78,0.00,,,0.00,meteohub,2013-02-02 15:32:00,
2013-02-02 05:38:00,64.8,57.7,30.06,East,96,3.0,4.0,78,0.00,,,0.00,meteohub,2013-02-02 15:38:00,
2013-02-02 05:43:00,64.8,57.7,30.06,ENE,74,2.0,4.0,78,0.00,,,0.00,meteohub,2013-02-02 15:43:00,
2013-02-02 05:48:00,64.9,57.6,30.06,East,92,3.0,4.0,77,0.00,,,0.00,meteohub,2013-02-02 15:48:00,
2013-02-02 05:53:00,65.1,57.7,30.06,ESE,104,2.0,4.0,77,0.00,,,0.00,meteohub,2013-02-02 15:53:00,
2013-02-02 05:58:00,65.5,57.7,30.06,ENE,73,2.0,4.0,76,0.00,,,0.00,meteohub,2013-02-02 15:58:00,
2013-02-02 06:03:00,65.3,57.6,30.07,ENE,75,1.0,4.0,76,0.00,,,0.00,meteohub,2013-02-02 16:03:00,
2013-02-02 06:08:00,64.9,57.2,30.07,ENE,69,3.0,3.0,76,0.00,,,0.00,meteohub,2013-02-02 16:08:00,
2013-02-02 06:13:00,64.8,57.0,30.07,ENE,78,3.0,4.0,76,0.00,,,0.00,meteohub,2013-02-02 16:13:00,
2013-02-02 06:18:00,64.2,56.8,30.07,ENE,65,2.0,4.0,77,0.00,,,0.00,meteohub,2013-02-02 16:18:00,
2013-02-02 06:23:00,64.0,56.7,30.08,ENE,69,2.0,4.0,77,0.00,,,0.00,meteohub,2013-02-02 16:23:00,
2013-02-02 06:28:00,63.9,56.5,30.08,ENE,70,4.0,4.0,77,0.00,,,0.00,meteohub,2013-02-02 16:28:00,
2013-02-02 06:33:00,63.9,56.5,30.08,East,80,0.0,4.0,77,0.00,,,0.00,meteohub,2013-02-02 16:33:00,
2013-02-02 06:39:00,63.7,56.3,30.08,East,100,3.0,4.0,77,0.00,,,0.00,meteohub,2013-02-02 16:39:00,
2013-02-02 06:44:00,63.7,56.3,30.08,East,98,2.0,5.0,77,0.00,,,0.00,meteohub,2013-02-02 16:44:00,
2013-02-02 06:49:00,63.7,56.3,30.08,East,92,4.0,5.0,77,0.00,,,0.00,meteohub,2013-02-02 16:49:00,
2013-02-02 06:54:00,63.7,56.3,30.09,East,89,4.0,5.0,77,0.00,,,0.00,meteohub,2013-02-02 16:54:00,
2013-02-02 06:59:00,63.9,56.5,30.09,ESE,111,4.0,5.0,77,0.00,,,0.00,meteohub,2013-02-02 16:59:00,
2013-02-02 07:04:00,64.4,57.0,30.09,East,92,3.0,5.0,77,0.00,,,0.00,meteohub,2013-02-02 17:04:00,
2013-02-02 07:09:00,64.8,57.0,30.09,ENE,76,2.0,5.0,76,0.00,,,0.00,meteohub,2013-02-02 17:09:00,
2013-02-02 07:14:00,64.9,57.2,30.09,East,92,1.0,5.0,76,0.00,,,0.00,meteohub,2013-02-02 17:14:00,
2013-02-02 07:19:00,65.3,57.2,30.09,East,95,3.0,4.0,75,0.00,,,0.00,meteohub,2013-02-02 17:19:00,
2013-02-02 07:24:00,65.5,57.0,30.09,East,94,0.0,4.0,74,0.00,,,0.00,meteohub,2013-02-02 17:24:00,
2013-02-02 07:29:00,65.1,57.0,30.10,ESE,111,2.0,4.0,75,0.00,,,0.00,meteohub,2013-02-02 17:29:00,
2013-02-02 07:34:00,65.5,57.7,30.10,ESE,112,1.0,4.0,76,0.00,,,0.00,meteohub,2013-02-02 17:34:00,
2013-02-02 07:39:00,65.8,58.1,30.10,ESE,120,0.0,3.0,76,0.00,,,0.00,meteohub,2013-02-02 17:39:00,
2013-02-02 07:44:00,65.8,57.7,30.10,East,80,3.0,3.0,75,0.00,,,0.00,meteohub,2013-02-02 17:44:00,
2013-02-02 07:49:00,65.8,58.5,30.10,East,96,3.0,3.0,77,0.00,,,0.00,meteohub,2013-02-02 17:49:00,
2013-02-02 07:55:00,66.4,58.6,30.11,East,84,1.0,4.0,76,0.00,,,0.00,meteohub,2013-02-02 17:55:00,
2013-02-02 08:00:00,66.9,59.2,30.11,ENE,78,1.0,5.0,76,0.00,,,0.00,meteohub,2013-02-02 18:00:00,
2013-02-02 08:05:00,67.6,59.4,30.11,ESE,102,1.0,5.0,75,0.00,,,0.00,meteohub,2013-02-02 18:05:00,
2013-02-02 08:10:00,68.2,59.5,30.12,East,88,1.0,2.0,74,0.00,,,0.00,meteohub,2013-02-02 18:10:00,
2013-02-02 08:15:00,69.1,60.4,30.12,ESE,103,0.0,2.0,74,0.00,,,0.00,meteohub,2013-02-02 18:15:00,
2013-02-02 08:20:00,69.8,60.8,30.12,East,94,2.0,2.0,73,0.00,,,0.00,meteohub,2013-02-02 18:20:00,
2013-02-02 08:25:00,70.5,61.5,30.12,East,101,0.0,2.0,73,0.00,,,0.00,meteohub,2013-02-02 18:25:00,
2013-02-02 08:30:00,71.8,62.6,30.12,East,100,0.0,2.0,73,0.00,,,0.00,meteohub,2013-02-02 18:30:00,
2013-02-02 08:35:00,72.5,62.6,30.12,ESE,108,1.0,2.0,71,0.00,,,0.00,meteohub,2013-02-02 18:35:00,
2013-02-02 08:40:00,72.7,61.2,30.12,WSW,242,2.0,2.0,67,0.00,,,0.00,meteohub,2013-02-02 18:40:00,
2013-02-02 08:45:00,71.8,61.0,30.12,SW,215,2.0,2.0,69,0.00,,,0.00,meteohub,2013-02-02 18:45:00,
2013-02-02 08:50:00,71.4,61.2,30.12,WSW,248,2.0,3.0,70,0.00,,,0.00,meteohub,2013-02-02 18:50:00,
2013-02-02 08:55:00,71.1,61.2,30.12,WSW,248,2.0,3.0,71,0.00,,,0.00,meteohub,2013-02-02 18:55:00,
2013-02-02 09:00:00,71.1,61.2,30.12,SW,234,2.0,3.0,71,0.00,,,0.00,meteohub,2013-02-02 19:00:00,
2013-02-02 09:05:00,71.2,61.3,30.12,SSE,160,2.0,3.0,71,0.00,,,0.00,meteohub,2013-02-02 19:05:00,
2013-02-02 09:10:00,71.8,61.9,30.12,South,188,3.0,4.0,71,0.00,,,0.00,meteohub,2013-02-02 19:10:00,
2013-02-02 09:15:00,72.1,61.9,30.12,SW,232,2.0,4.0,70,0.00,,,0.00,meteohub,2013-02-02 19:15:00,
2013-02-02 09:21:00,72.1,60.6,30.12,West,262,4.0,4.0,67,0.00,,,0.00,meteohub,2013-02-02 19:21:00,
2013-02-02 09:26:00,72.1,61.3,30.13,SE,138,1.0,5.0,69,0.00,,,0.00,meteohub,2013-02-02 19:26:00,
2013-02-02 09:31:00,72.7,61.2,30.13,WNW,286,3.0,5.0,67,0.00,,,0.00,meteohub,2013-02-02 19:31:00,
2013-02-02 09:36:00,72.3,61.2,30.13,WSW,249,2.0,6.0,68,0.00,,,0.00,meteohub,2013-02-02 19:36:00,
2013-02-02 09:41:00,72.0,60.8,30.13,West,259,2.0,6.0,68,0.00,,,0.00,meteohub,2013-02-02 19:41:00,
2013-02-02 09:46:00,72.0,60.8,30.13,SW,231,0.0,6.0,68,0.00,,,0.00,meteohub,2013-02-02 19:46:00,
2013-02-02 09:51:00,72.3,61.5,30.13,SSE,167,0.0,5.0,69,0.00,,,0.00,meteohub,2013-02-02 19:51:00,
2013-02-02 09:56:00,73.2,61.2,30.13,WNW,300,1.0,5.0,66,0.00,,,0.00,meteohub,2013-02-02 19:56:00,
2013-02-02 10:01:00,73.0,61.0,30.13,WNW,284,1.0,2.0,66,0.00,,,0.00,meteohub,2013-02-02 20:01:00,
2013-02-02 10:06:00,73.2,60.3,30.13,SSW,211,0.0,2.0,64,0.00,,,0.00,meteohub,2013-02-02 20:06:00,
2013-02-02 10:11:00,73.9,60.1,30.13,WSW,250,0.0,2.0,62,0.00,,,0.00,meteohub,2013-02-02 20:11:00,
2013-02-02 10:16:00,74.7,59.4,30.13,SSE,153,1.0,2.0,59,0.00,,,0.00,meteohub,2013-02-02 20:16:00,
2013-02-02 10:21:00,75.4,59.5,30.14,NW,316,0.0,2.0,58,0.00,,,0.00,meteohub,2013-02-02 20:21:00,
2013-02-02 10:26:00,75.6,59.2,30.14,WSW,240,0.0,5.0,57,0.00,,,0.00,meteohub,2013-02-02 20:26:00,
2013-02-02 10:31:00,75.9,60.1,30.14,WSW,239,3.0,5.0,58,0.00,,,0.00,meteohub,2013-02-02 20:31:00,
2013-02-02 10:36:00,75.4,59.0,30.14,West,267,2.0,6.0,57,0.00,,,0.00,meteohub,2013-02-02 20:36:00,
2013-02-02 10:42:00,75.4,59.5,30.13,NW,306,8.0,8.0,58,0.00,,,0.00,meteohub,2013-02-02 20:42:00,
2013-02-02 10:47:00,74.8,59.0,30.13,WNW,290,2.0,8.0,58,0.00,,,0.00,meteohub,2013-02-02 20:47:00,
2013-02-02 10:52:00,75.0,60.3,30.13,SW,231,2.0,8.0,60,0.00,,,0.00,meteohub,2013-02-02 20:52:00,
2013-02-02 10:57:00,75.4,60.1,30.13,WNW,284,5.0,8.0,59,0.00,,,0.00,meteohub,2013-02-02 20:57:00,
2013-02-02 11:02:00,75.6,59.7,30.13,West,278,5.0,6.0,58,0.00,,,0.00,meteohub,2013-02-02 21:02:00,
2013-02-02 11:07:00,75.9,59.5,30.12,West,274,1.0,7.0,57,0.00,,,0.00,meteohub,2013-02-02 21:07:00,
2013-02-02 11:12:00,75.9,59.2,30.12,WSW,255,1.0,7.0,56,0.00,,,0.00,meteohub,2013-02-02 21:12:00,
2013-02-02 11:17:00,75.9,59.2,30.12,WSW,242,6.0,7.0,56,0.00,,,0.00,meteohub,2013-02-02 21:17:00,
2013-02-02 11:22:00,75.9,59.2,30.12,WNW,287,5.0,8.0,56,0.00,,,0.00,meteohub,2013-02-02 21:22:00,
2013-02-02 11:27:00,75.7,59.9,30.12,WSW,239,5.0,8.0,58,0.00,,,0.00,meteohub,2013-02-02 21:27:00,
2013-02-02 11:32:00,75.9,60.1,30.12,West,278,5.0,8.0,58,0.00,,,0.00,meteohub,2013-02-02 21:32:00,
2013-02-02 11:37:00,76.1,60.3,30.12,WSW,243,5.0,7.0,58,0.00,,,0.00,meteohub,2013-02-02 21:37:00,
2013-02-02 11:42:00,76.1,59.2,30.12,WNW,298,4.0,7.0,56,0.00,,,0.00,meteohub,2013-02-02 21:42:00,
2013-02-02 11:47:00,76.3,59.9,30.12,WNW,286,4.0,7.0,57,0.00,,,0.00,meteohub,2013-02-02 21:47:00,
2013-02-02 11:52:00,76.3,59.4,30.12,WNW,296,3.0,8.0,56,0.00,,,0.00,meteohub,2013-02-02 21:52:00,
2013-02-02 11:57:00,76.5,60.6,30.11,WNW,283,3.0,8.0,58,0.00,,,0.00,meteohub,2013-02-02 21:57:00,
2013-02-02 12:02:00,76.6,60.3,30.11,West,277,3.0,8.0,57,0.00,,,0.00,meteohub,2013-02-02 22:02:00,
2013-02-02 12:07:00,76.5,60.1,30.11,WNW,288,5.0,6.0,57,0.00,,,0.00,meteohub,2013-02-02 22:07:00,
2013-02-02 12:12:00,76.5,59.5,30.11,WSW,249,1.0,8.0,56,0.00,,,0.00,meteohub,2013-02-02 22:12:00,
2013-02-02 12:17:00,76.6,59.7,30.10,SW,236,5.0,8.0,56,0.00,,,0.00,meteohub,2013-02-02 22:17:00,
2013-02-02 12:22:00,77.0,60.1,30.10,WSW,256,3.0,8.0,56,0.00,,,0.00,meteohub,2013-02-02 22:22:00,
2013-02-02 12:27:00,77.2,61.3,30.10,SW,235,3.0,8.0,58,0.00,,,0.00,meteohub,2013-02-02 22:27:00,
2013-02-02 12:32:00,77.7,61.7,30.10,WNW,297,8.0,9.0,58,0.00,,,0.00,meteohub,2013-02-02 22:32:00,
2013-02-02 12:37:00,77.5,61.5,30.09,NW,315,7.0,13.0,58,0.00,,,0.00,meteohub,2013-02-02 22:37:00,
2013-02-02 12:42:00,77.7,61.3,30.09,West,271,7.0,15.0,57,0.00,,,0.00,meteohub,2013-02-02 22:42:00,
2013-02-02 12:47:00,78.1,60.6,30.09,WNW,294,6.0,15.0,55,0.00,,,0.00,meteohub,2013-02-02 22:47:00,
2013-02-02 12:52:00,78.1,61.5,30.09,WNW,297,7.0,14.0,57,0.00,,,0.00,meteohub,2013-02-02 22:52:00,
2013-02-02 12:57:00,77.7,61.3,30.09,NW,323,10.0,14.0,57,0.00,,,0.00,meteohub,2013-02-02 22:57:00,
2013-02-02 13:02:00,77.7,60.8,30.08,WNW,298,10.0,15.0,56,0.00,,,0.00,meteohub,2013-02-02 23:02:00,
2013-02-02 13:07:00,77.7,62.2,30.08,WNW,294,7.0,15.0,59,0.00,,,0.00,meteohub,2013-02-02 23:07:00,
2013-02-02 13:12:00,77.7,61.7,30.08,NW,310,18.0,18.0,58,0.00,,,0.00,meteohub,2013-02-02 23:12:00,
2013-02-02 13:17:00,77.4,61.3,30.08,WNW,290,10.0,18.0,58,0.00,,,0.00,meteohub,2013-02-02 23:17:00,
2013-02-02 13:22:00,77.4,61.0,30.07,WNW,294,9.0,18.0,57,0.00,,,0.00,meteohub,2013-02-02 23:22:00,
2013-02-02 13:27:00,77.5,61.5,30.07,West,281,12.0,18.0,58,0.00,,,0.00,meteohub,2013-02-02 23:27:00,
2013-02-02 13:32:00,77.4,61.0,30.07,NW,310,9.0,17.0,57,0.00,,,0.00,meteohub,2013-02-02 23:32:00,
2013-02-02 13:37:00,78.1,61.2,30.07,WNW,287,11.0,18.0,56,0.00,,,0.00,meteohub,2013-02-02 23:37:00,
2013-02-02 13:42:00,77.5,60.6,30.07,WNW,298,10.0,20.0,56,0.00,,,0.00,meteohub,2013-02-02 23:42:00,
2013-02-02 13:47:00,77.4,61.0,30.07,WNW,290,9.0,20.0,57,0.00,,,0.00,meteohub,2013-02-02 23:47:00,
2013-02-02 13:52:00,77.7,61.7,30.06,WNW,300,9.0,20.0,58,0.00,,,0.00,meteohub,2013-02-02 23:52:00,
2013-02-02 13:57:00,77.9,61.5,30.06,WNW,300,10.0,18.0,57,0.00,,,0.00,meteohub,2013-02-02 23:57:00,
2013-02-02 14:02:00,77.5,61.2,30.06,WNW,300,7.0,17.0,57,0.00,,,0.00,meteohub,2013-02-03 00:02:00,
2013-02-02 14:07:00,77.9,62.4,30.06,NW,311,9.0,17.0,59,0.00,,,0.00,meteohub,2013-02-03 00:07:00,
2013-02-02 14:12:00,77.7,61.3,30.06,WNW,298,13.0,18.0,57,0.00,,,0.00,meteohub,2013-02-03 00:12:00,
2013-02-02 14:17:00,77.5,61.5,30.06,NW,316,10.0,19.0,58,0.00,,,0.00,meteohub,2013-02-03 00:17:00,
2013-02-02 14:22:00,77.5,62.1,30.06,NW,309,17.0,19.0,59,0.00,,,0.00,meteohub,2013-02-03 00:22:00,
2013-02-02 14:27:00,77.4,61.3,30.06,West,277,10.0,19.0,58,0.00,,,0.00,meteohub,2013-02-03 00:27:00,
2013-02-02 14:32:00,77.9,61.5,30.06,WNW,290,13.0,18.0,57,0.00,,,0.00,meteohub,2013-02-03 00:32:00,
2013-02-02 14:37:00,77.7,60.3,30.06,WNW,297,4.0,18.0,55,0.00,,,0.00,meteohub,2013-02-03 00:37:00,
2013-02-02 14:42:00,77.5,61.5,30.06,WNW,286,13.0,18.0,58,0.00,,,0.00,meteohub,2013-02-03 00:42:00,
2013-02-02 14:47:00,77.0,61.2,30.06,WNW,300,14.0,19.0,58,0.00,,,0.00,meteohub,2013-02-03 00:47:00,
2013-02-02 14:52:00,77.2,61.3,30.06,NW,305,6.0,19.0,58,0.00,,,0.00,meteohub,2013-02-03 00:52:00,
2013-02-02 14:57:00,77.2,61.3,30.06,NW,315,11.0,20.0,58,0.00,,,0.00,meteohub,2013-02-03 00:57:00,
2013-02-02 15:02:00,77.2,61.7,30.06,WNW,300,12.0,20.0,59,0.00,,,0.00,meteohub,2013-02-03 01:02:00,
2013-02-02 15:07:00,77.2,60.8,30.06,NW,323,8.0,20.0,57,0.00,,,0.00,meteohub,2013-02-03 01:07:00,
2013-02-02 15:12:00,77.2,60.8,30.06,WNW,296,7.0,18.0,57,0.00,,,0.00,meteohub,2013-02-03 01:12:00,
2013-02-02 15:17:00,77.0,60.6,30.06,NW,325,13.0,20.0,57,0.00,,,0.00,meteohub,2013-02-03 01:17:00,
2013-02-02 15:22:00,77.0,60.6,30.06,NW,316,13.0,20.0,57,0.00,,,0.00,meteohub,2013-02-03 01:22:00,
2013-02-02 15:27:00,76.6,61.2,30.06,NW,323,8.0,20.0,59,0.00,,,0.00,meteohub,2013-02-03 01:27:00,
2013-02-02 15:32:00,76.5,61.5,30.06,NW,314,11.0,20.0,60,0.00,,,0.00,meteohub,2013-02-03 01:32:00,
2013-02-02 15:37:00,76.5,61.0,30.06,WNW,295,14.0,20.0,59,0.00,,,0.00,meteohub,2013-02-03 01:37:00,
2013-02-02 15:42:00,76.5,60.6,30.06,WNW,292,18.0,20.0,58,0.00,,,0.00,meteohub,2013-02-03 01:42:00,
2013-02-02 15:47:00,76.5,61.5,30.06,NW,316,11.0,20.0,60,0.00,,,0.00,meteohub,2013-02-03 01:47:00,
2013-02-02 15:52:00,76.6,61.2,30.06,NW,321,17.0,18.0,59,0.00,,,0.00,meteohub,2013-02-03 01:52:00,
2013-02-02 15:57:00,76.1,61.2,30.06,NNW,342,10.0,19.0,60,0.00,,,0.00,meteohub,2013-02-03 01:57:00,
2013-02-02 16:02:00,76.1,61.2,30.06,NNW,342,13.0,19.0,60,0.00,,,0.00,meteohub,2013-02-03 02:02:00,
2013-02-02 16:07:00,75.9,61.9,30.06,NW,317,9.0,19.0,62,0.00,,,0.00,meteohub,2013-02-03 02:07:00,
2013-02-02 16:12:00,75.9,61.5,30.06,WNW,284,11.0,19.0,61,0.00,,,0.00,meteohub,2013-02-03 02:12:00,
2013-02-02 16:17:00,75.7,61.9,30.06,North,0,13.0,18.0,62,0.00,,,0.00,meteohub,2013-02-03 02:17:00,
2013-02-02 16:22:00,75.7,61.9,30.07,WNW,295,11.0,18.0,62,0.00,,,0.00,meteohub,2013-02-03 02:22:00,
2013-02-02 16:27:00,75.7,62.2,30.07,WNW,290,10.0,18.0,63,0.00,,,0.00,meteohub,2013-02-03 02:27:00,
2013-02-02 16:32:00,75.4,61.5,30.06,NW,311,9.0,17.0,62,0.00,,,0.00,meteohub,2013-02-03 02:32:00,
2013-02-02 16:37:00,75.6,62.1,30.06,NW,316,6.0,16.0,63,0.00,,,0.00,meteohub,2013-02-03 02:37:00,
2013-02-02 16:42:00,75.4,60.4,30.07,WNW,283,6.0,18.0,60,0.00,,,0.00,meteohub,2013-02-03 02:42:00,
2013-02-02 16:47:00,75.4,61.0,30.07,WNW,292,6.0,19.0,61,0.00,,,0.00,meteohub,2013-02-03 02:47:00,
2013-02-02 16:52:00,75.4,60.4,30.07,NW,322,13.0,20.0,60,0.00,,,0.00,meteohub,2013-02-03 02:52:00,
2013-02-02 16:57:00,74.8,61.0,30.07,NW,316,11.0,20.0,62,0.00,,,0.00,meteohub,2013-02-03 02:57:00,
2013-02-02 17:02:00,75.0,60.6,30.07,NW,316,15.0,20.0,61,0.00,,,0.00,meteohub,2013-02-03 03:02:00,
2013-02-02 17:07:00,74.8,60.4,30.07,WNW,302,9.0,17.0,61,0.00,,,0.00,meteohub,2013-02-03 03:07:00,
2013-02-02 17:12:00,75.0,60.6,30.07,WNW,284,13.0,15.0,61,0.00,,,0.00,meteohub,2013-02-03 03:12:00,
2013-02-02 17:17:00,74.8,60.4,30.08,West,278,5.0,15.0,61,0.00,,,0.00,meteohub,2013-02-03 03:17:00,
2013-02-02 17:22:00,74.7,60.3,30.08,WNW,302,10.0,17.0,61,0.00,,,0.00,meteohub,2013-02-03 03:22:00,
2013-02-02 17:27:00,74.5,60.6,30.08,NW,316,8.0,17.0,62,0.00,,,0.00,meteohub,2013-02-03 03:27:00,
2013-02-02 17:32:00,74.1,61.2,30.08,WNW,300,6.0,14.0,64,0.00,,,0.00,meteohub,2013-02-03 03:32:00,
2013-02-02 17:37:00,73.9,60.6,30.08,NW,311,4.0,14.0,63,0.00,,,0.00,meteohub,2013-02-03 03:37:00,
2013-02-02 17:42:00,73.6,60.6,30.08,NNW,333,5.0,13.0,64,0.00,,,0.00,meteohub,2013-02-03 03:42:00,
2013-02-02 17:47:00,73.4,60.4,30.09,NNW,328,7.0,15.0,64,0.00,,,0.00,meteohub,2013-02-03 03:47:00,
2013-02-02 17:52:00,73.0,59.7,30.09,NNW,338,5.0,16.0,63,0.00,,,0.00,meteohub,2013-02-03 03:52:00,
2013-02-02 17:57:00,72.9,59.9,30.09,WNW,298,8.0,16.0,64,0.00,,,0.00,meteohub,2013-02-03 03:57:00,
2013-02-02 18:02:00,72.7,60.6,30.09,NNW,329,5.0,16.0,66,0.00,,,0.00,meteohub,2013-02-03 04:02:00,
2013-02-02 18:07:00,72.3,60.3,30.09,North,0,4.0,15.0,66,0.00,,,0.00,meteohub,2013-02-03 04:07:00,
2013-02-02 18:12:00,72.0,59.9,30.09,NW,316,8.0,11.0,66,0.00,,,0.00,meteohub,2013-02-03 04:12:00,
2013-02-02 18:17:00,71.8,60.3,30.09,NNW,330,2.0,12.0,67,0.00,,,0.00,meteohub,2013-02-03 04:17:00,
2013-02-02 18:22:00,71.4,59.9,30.10,WNW,293,3.0,12.0,67,0.00,,,0.00,meteohub,2013-02-03 04:22:00,
2013-02-02 18:27:00,71.2,59.7,30.10,NW,325,1.0,12.0,67,0.00,,,0.00,meteohub,2013-02-03 04:27:00,
2013-02-02 18:32:00,71.1,59.5,30.10,NNW,340,1.0,12.0,67,0.00,,,0.00,meteohub,2013-02-03 04:32:00,
2013-02-02 18:37:00,70.9,59.4,30.10,ENE,75,1.0,8.0,67,0.00,,,0.00,meteohub,2013-02-03 04:37:00,
2013-02-02 18:42:00,70.7,59.5,30.10,ENE,68,5.0,6.0,68,0.00,,,0.00,meteohub,2013-02-03 04:42:00,
2013-02-02 18:47:00,70.5,59.4,30.10,NNE,33,3.0,7.0,68,0.00,,,0.00,meteohub,2013-02-03 04:47:00,
2013-02-02 18:52:00,70.3,59.4,30.10,NE,54,3.0,7.0,68,0.00,,,0.00,meteohub,2013-02-03 04:52:00,
2013-02-02 18:57:00,70.3,59.7,30.11,East,87,1.0,5.0,69,0.00,,,0.00,meteohub,2013-02-03 04:57:00,
2013-02-02 19:00:00,70.3,59.4,30.11,ENE,63,1.0,5.0,68,0.00,,,0.00,meteohub,2013-02-03 05:00:00,
2013-02-02 19:01:00,70.3,59.4,30.11,East,94,1.0,5.0,68,0.00,,,0.00,meteohub,2013-02-03 05:01:00,
2013-02-02 19:03:00,70.3,59.4,30.11,ENE,69,1.0,5.0,68,0.00,,,0.00,meteohub,2013-02-03 05:03:00,
2013-02-02 19:06:00,70.3,59.4,30.11,ESE,102,1.0,5.0,68,0.00,,,0.00,meteohub,2013-02-03 05:06:00,
2013-02-02 19:12:00,70.0,59.0,30.11,SE,133,1.0,5.0,68,0.00,,,0.00,meteohub,2013-02-03 05:12:00,
2013-02-02 19:17:00,69.4,58.5,30.11,North,5,1.0,5.0,68,0.00,,,0.00,meteohub,2013-02-03 05:17:00,
2013-02-02 19:22:00,69.1,58.5,30.11,SE,143,0.0,3.0,69,0.00,,,0.00,meteohub,2013-02-03 05:22:00,
2013-02-02 19:27:00,69.1,58.5,30.12,SE,134,1.0,2.0,69,0.00,,,0.00,meteohub,2013-02-03 05:27:00,
2013-02-02 19:32:00,68.9,58.3,30.12,SE,129,0.0,3.0,69,0.00,,,0.00,meteohub,2013-02-03 05:32:00,
2013-02-02 19:37:00,69.1,58.5,30.12,SE,127,1.0,3.0,69,0.00,,,0.00,meteohub,2013-02-03 05:37:00,
2013-02-02 19:42:00,69.3,59.0,30.12,SE,141,1.0,3.0,70,0.00,,,0.00,meteohub,2013-02-03 05:42:00,
2013-02-02 19:47:00,69.1,58.5,30.12,WSW,240,0.0,3.0,69,0.00,,,0.00,meteohub,2013-02-03 05:47:00,
2013-02-02 19:52:00,69.1,58.8,30.12,West,264,0.0,3.0,70,0.00,,,0.00,meteohub,2013-02-03 05:52:00,
2013-02-02 19:57:00,68.7,59.0,30.12,ESE,119,0.0,3.0,71,0.00,,,0.00,meteohub,2013-02-03 05:57:00,
2013-02-02 20:02:00,68.5,58.8,30.12,SSE,151,1.0,2.0,71,0.00,,,0.00,meteohub,2013-02-03 06:02:00,
2013-02-02 20:07:00,68.5,59.2,30.12,SE,132,0.0,2.0,72,0.00,,,0.00,meteohub,2013-02-03 06:07:00,
2013-02-02 20:12:00,68.4,59.4,30.12,SE,128,1.0,2.0,73,0.00,,,0.00,meteohub,2013-02-03 06:12:00,
2013-02-02 20:17:00,68.4,59.4,30.12,SE,132,0.0,2.0,73,0.00,,,0.00,meteohub,2013-02-03 06:17:00,
2013-02-02 20:22:00,68.2,59.2,30.12,ESE,110,2.0,2.0,73,0.00,,,0.00,meteohub,2013-02-03 06:22:00,
2013-02-02 20:27:00,68.2,59.2,30.13,SE,124,1.0,2.0,73,0.00,,,0.00,meteohub,2013-02-03 06:27:00,
2013-02-02 20:32:00,68.0,59.4,30.13,SE,125,1.0,2.0,74,0.00,,,0.00,meteohub,2013-02-03 06:32:00,
2013-02-02 20:37:00,67.8,59.2,30.13,SE,135,0.0,2.0,74,0.00,,,0.00,meteohub,2013-02-03 06:37:00,
2013-02-02 20:42:00,67.6,59.0,30.13,SSE,152,0.0,2.0,74,0.00,,,0.00,meteohub,2013-02-03 06:42:00,
2013-02-02 20:47:00,67.5,58.8,30.13,SSE,158,1.0,2.0,74,0.00,,,0.00,meteohub,2013-02-03 06:47:00,
2013-02-02 20:52:00,67.5,59.2,30.13,ESE,109,0.0,2.0,75,0.00,,,0.00,meteohub,2013-02-03 06:52:00,
2013-02-02 20:57:00,67.5,59.2,30.13,ESE,104,4.0,4.0,75,0.00,,,0.00,meteohub,2013-02-03 06:57:00,
2013-02-02 21:02:00,67.6,59.4,30.13,ESE,115,3.0,4.0,75,0.00,,,0.00,meteohub,2013-02-03 07:02:00,
2013-02-02 21:07:00,67.6,59.0,30.13,East,96,3.0,6.0,74,0.00,,,0.00,meteohub,2013-02-03 07:07:00,
2013-02-02 21:12:00,67.6,59.0,30.13,ESE,111,2.0,6.0,74,0.00,,,0.00,meteohub,2013-02-03 07:12:00,
2013-02-02 21:17:00,67.6,58.6,30.13,ESE,113,3.0,6.0,73,0.00,,,0.00,meteohub,2013-02-03 07:17:00,
2013-02-02 21:22:00,67.6,58.6,30.13,ESE,123,7.0,7.0,73,0.00,,,0.00,meteohub,2013-02-03 07:22:00,
2013-02-02 21:27:00,67.8,58.8,30.13,SE,141,3.0,9.0,73,0.00,,,0.00,meteohub,2013-02-03 07:27:00,
2013-02-02 21:32:00,67.8,58.8,30.13,SE,145,3.0,9.0,73,0.00,,,0.00,meteohub,2013-02-03 07:32:00,
2013-02-02 21:37:00,68.0,58.6,30.13,SE,131,4.0,9.0,72,0.00,,,0.00,meteohub,2013-02-03 07:37:00,
2013-02-02 21:42:00,68.2,58.8,30.13,ESE,118,3.0,9.0,72,0.00,,,0.00,meteohub,2013-02-03 07:42:00,
2013-02-02 21:47:00,68.4,59.0,30.13,SE,129,2.0,8.0,72,0.00,,,0.00,meteohub,2013-02-03 07:47:00,
2013-02-02 21:52:00,68.2,58.8,30.13,East,84,4.0,7.0,72,0.00,,,0.00,meteohub,2013-02-03 07:52:00,
2013-02-02 21:57:00,68.2,58.8,30.13,East,85,2.0,7.0,72,0.00,,,0.00,meteohub,2013-02-03 07:57:00,
2013-02-02 22:02:00,68.2,58.8,30.13,SE,125,1.0,6.0,72,0.00,,,0.00,meteohub,2013-02-03 08:02:00,
2013-02-02 22:07:00,68.2,58.8,30.13,ESE,113,2.0,6.0,72,0.00,,,0.00,meteohub,2013-02-03 08:07:00,
2013-02-02 22:12:00,67.8,58.5,30.13,SE,146,0.0,6.0,72,0.00,,,0.00,meteohub,2013-02-03 08:12:00,
2013-02-02 22:17:00,67.6,58.3,30.13,NW,315,1.0,6.0,72,0.00,,,0.00,meteohub,2013-02-03 08:17:00,
2013-02-02 22:22:00,67.5,58.8,30.13,NW,315,0.0,3.0,74,0.00,,,0.00,meteohub,2013-02-03 08:22:00,
2013-02-02 22:27:00,67.1,58.5,30.13,ESE,117,1.0,3.0,74,0.00,,,0.00,meteohub,2013-02-03 08:27:00,
2013-02-02 22:32:00,66.7,58.6,30.13,ESE,107,1.0,3.0,75,0.00,,,0.00,meteohub,2013-02-03 08:32:00,
2013-02-02 22:37:00,66.6,58.8,30.12,ESE,120,1.0,2.0,76,0.00,,,0.00,meteohub,2013-02-03 08:37:00,
2013-02-02 22:42:00,66.6,59.2,30.13,SE,126,0.0,2.0,77,0.00,,,0.00,meteohub,2013-02-03 08:42:00,
2013-02-02 22:47:00,66.4,58.6,30.13,ESE,116,0.0,2.0,76,0.00,,,0.00,meteohub,2013-02-03 08:47:00,
2013-02-02 22:52:00,66.2,58.5,30.13,ESE,109,0.0,1.0,76,0.00,,,0.00,meteohub,2013-02-03 08:52:00,
2013-02-02 22:57:00,66.0,58.6,30.13,ESE,110,0.0,1.0,77,0.00,,,0.00,meteohub,2013-02-03 08:57:00,
2013-02-02 23:02:00,65.8,58.5,30.13,WNW,296,2.0,2.0,77,0.00,,,0.00,meteohub,2013-02-03 09:02:00,
2013-02-02 23:07:00,65.5,58.1,30.13,NW,326,2.0,2.0,77,0.00,,,0.00,meteohub,2013-02-03 09:07:00,
2013-02-02 23:12:00,65.3,57.9,30.13,ENE,58,0.0,4.0,77,0.00,,,0.00,meteohub,2013-02-03 09:12:00,
2013-02-02 23:17:00,64.9,57.2,30.12,East,89,2.0,4.0,76,0.00,,,0.00,meteohub,2013-02-03 09:17:00,
2013-02-02 23:22:00,64.4,57.4,30.12,East,98,3.0,4.0,78,0.00,,,0.00,meteohub,2013-02-03 09:22:00,
2013-02-02 23:27:00,64.6,57.6,30.12,ESE,118,3.0,4.0,78,0.00,,,0.00,meteohub,2013-02-03 09:27:00,
2013-02-02 23:32:00,64.9,57.9,30.12,SE,127,3.0,4.0,78,0.00,,,0.00,meteohub,2013-02-03 09:32:00,
2013-02-02 23:37:00,65.1,58.1,30.12,East,98,4.0,5.0,78,0.00,,,0.00,meteohub,2013-02-03 09:37:00,
2013-02-02 23:42:00,65.5,58.5,30.12,SE,127,2.0,5.0,78,0.00,,,0.00,meteohub,2013-02-03 09:42:00,
2013-02-02 23:47:00,65.7,58.3,30.12,East,91,2.0,5.0,77,0.00,,,0.00,meteohub,2013-02-03 09:47:00,
2013-02-02 23:52:00,65.8,58.1,30.12,ESE,113,0.0,6.0,76,0.00,,,0.00,meteohub,2013-02-03 09:52:00,
2013-02-02 23:57:00,65.7,57.9,30.12,NW,314,4.0,6.0,76,0.00,,,0.00,meteohub,2013-02-03 09:57:00,